sensor_id;sensor_type;location;lat;lon;timestamp;temperature;humidity
34768;DHT22;21755;43.608;1.236;2023-09-30T00:01:30;19.90;64.80
34768;DHT22;21755;43.608;1.236;2023-09-30T00:03:56;19.90;64.60
34768;DHT22;21755;43.608;1.236;2023-09-30T00:06:22;19.90;65.10
34768;DHT22;21755;43.608;1.236;2023-09-30T00:08:48;19.90;65.20
34768;DHT22;21755;43.608;1.236;2023-09-30T00:11:15;19.80;66.60
34768;DHT22;21755;43.608;1.236;2023-09-30T00:13:42;19.80;66.20
34768;DHT22;21755;43.608;1.236;2023-09-30T00:16:09;19.70;65.70
34768;DHT22;21755;43.608;1.236;2023-09-30T00:18:35;19.70;68.50
34768;DHT22;21755;43.608;1.236;2023-09-30T00:21:01;19.70;67.20
34768;DHT22;21755;43.608;1.236;2023-09-30T00:23:27;19.60;66.80
34768;DHT22;21755;43.608;1.236;2023-09-30T00:25:53;19.60;65.30
34768;DHT22;21755;43.608;1.236;2023-09-30T00:28:18;19.60;67.10
34768;DHT22;21755;43.608;1.236;2023-09-30T00:30:44;19.50;67.80
34768;DHT22;21755;43.608;1.236;2023-09-30T00:33:13;19.50;69.50
34768;DHT22;21755;43.608;1.236;2023-09-30T00:35:39;19.50;70.10
34768;DHT22;21755;43.608;1.236;2023-09-30T00:38:05;19.50;71.40
34768;DHT22;21755;43.608;1.236;2023-09-30T00:40:30;19.50;72.30
34768;DHT22;21755;43.608;1.236;2023-09-30T00:42:57;19.30;74.70
34768;DHT22;21755;43.608;1.236;2023-09-30T00:45:23;19.30;78.20
34768;DHT22;21755;43.608;1.236;2023-09-30T00:47:49;19.30;79.30
34768;DHT22;21755;43.608;1.236;2023-09-30T00:50:16;19.30;78.60
34768;DHT22;21755;43.608;1.236;2023-09-30T00:52:46;19.20;78.80
34768;DHT22;21755;43.608;1.236;2023-09-30T00:55:12;19.20;81.90
34768;DHT22;21755;43.608;1.236;2023-09-30T00:57:38;19.20;81.90
34768;DHT22;21755;43.608;1.236;2023-09-30T01:00:05;19.10;81.80
34768;DHT22;21755;43.608;1.236;2023-09-30T01:02:32;19.10;81.60
34768;DHT22;21755;43.608;1.236;2023-09-30T01:04:57;19.10;80.80
34768;DHT22;21755;43.608;1.236;2023-09-30T01:07:24;19.10;82.60
34768;DHT22;21755;43.608;1.236;2023-09-30T01:09:50;19.00;83.60
34768;DHT22;21755;43.608;1.236;2023-09-30T01:12:16;18.90;84.80
34768;DHT22;21755;43.608;1.236;2023-09-30T01:14:42;18.90;84.60
34768;DHT22;21755;43.608;1.236;2023-09-30T01:17:08;18.80;86.70
34768;DHT22;21755;43.608;1.236;2023-09-30T01:19:34;18.80;87.70
34768;DHT22;21755;43.608;1.236;2023-09-30T01:22:01;18.80;87.50
34768;DHT22;21755;43.608;1.236;2023-09-30T01:24:31;18.80;89.60
34768;DHT22;21755;43.608;1.236;2023-09-30T01:27:03;18.80;90.60
34768;DHT22;21755;43.608;1.236;2023-09-30T01:29:29;18.80;90.60
34768;DHT22;21755;43.608;1.236;2023-09-30T01:31:54;18.80;90.50
34768;DHT22;21755;43.608;1.236;2023-09-30T01:34:21;18.80;90.70
34768;DHT22;21755;43.608;1.236;2023-09-30T01:36:47;18.80;91.10
34768;DHT22;21755;43.608;1.236;2023-09-30T01:39:13;18.80;90.70
34768;DHT22;21755;43.608;1.236;2023-09-30T01:41:39;18.80;91.30
34768;DHT22;21755;43.608;1.236;2023-09-30T01:44:06;18.80;91.60
34768;DHT22;21755;43.608;1.236;2023-09-30T01:46:32;18.80;91.60
34768;DHT22;21755;43.608;1.236;2023-09-30T01:48:57;18.80;91.80
34768;DHT22;21755;43.608;1.236;2023-09-30T01:51:23;18.70;92.30
34768;DHT22;21755;43.608;1.236;2023-09-30T01:53:49;18.70;91.80
34768;DHT22;21755;43.608;1.236;2023-09-30T01:56:15;18.70;91.90
34768;DHT22;21755;43.608;1.236;2023-09-30T01:58:41;18.60;92.30
34768;DHT22;21755;43.608;1.236;2023-09-30T02:01:08;18.60;93.30
34768;DHT22;21755;43.608;1.236;2023-09-30T02:03:34;18.60;93.40
34768;DHT22;21755;43.608;1.236;2023-09-30T02:06:00;18.60;93.40
34768;DHT22;21755;43.608;1.236;2023-09-30T02:08:26;18.60;93.10
34768;DHT22;21755;43.608;1.236;2023-09-30T02:10:52;18.50;93.00
34768;DHT22;21755;43.608;1.236;2023-09-30T02:13:18;18.50;92.50
34768;DHT22;21755;43.608;1.236;2023-09-30T02:15:44;18.50;92.90
34768;DHT22;21755;43.608;1.236;2023-09-30T02:18:10;18.50;93.50
34768;DHT22;21755;43.608;1.236;2023-09-30T02:20:36;18.50;94.10
34768;DHT22;21755;43.608;1.236;2023-09-30T02:23:11;18.40;93.90
34768;DHT22;21755;43.608;1.236;2023-09-30T02:25:38;18.40;94.00
34768;DHT22;21755;43.608;1.236;2023-09-30T02:28:04;18.40;94.80
34768;DHT22;21755;43.608;1.236;2023-09-30T02:30:30;18.40;95.20
34768;DHT22;21755;43.608;1.236;2023-09-30T02:32:56;18.40;95.10
34768;DHT22;21755;43.608;1.236;2023-09-30T02:35:22;18.40;95.10
34768;DHT22;21755;43.608;1.236;2023-09-30T02:37:48;18.30;95.70
34768;DHT22;21755;43.608;1.236;2023-09-30T02:40:16;18.30;96.00
34768;DHT22;21755;43.608;1.236;2023-09-30T02:42:42;18.30;94.90
34768;DHT22;21755;43.608;1.236;2023-09-30T02:45:09;18.30;94.00
34768;DHT22;21755;43.608;1.236;2023-09-30T02:47:36;18.20;94.00
34768;DHT22;21755;43.608;1.236;2023-09-30T02:50:04;18.20;94.10
34768;DHT22;21755;43.608;1.236;2023-09-30T02:52:30;18.20;94.10
34768;DHT22;21755;43.608;1.236;2023-09-30T02:54:57;18.20;95.80
34768;DHT22;21755;43.608;1.236;2023-09-30T02:57:24;18.20;95.80
34768;DHT22;21755;43.608;1.236;2023-09-30T02:59:51;18.10;96.00
34768;DHT22;21755;43.608;1.236;2023-09-30T03:02:20;18.10;96.40
34768;DHT22;21755;43.608;1.236;2023-09-30T03:04:47;18.10;96.60
34768;DHT22;21755;43.608;1.236;2023-09-30T03:07:15;18.10;96.30
34768;DHT22;21755;43.608;1.236;2023-09-30T03:09:41;18.00;96.30
34768;DHT22;21755;43.608;1.236;2023-09-30T03:12:07;18.00;96.50
34768;DHT22;21755;43.608;1.236;2023-09-30T03:14:34;18.00;96.70
34768;DHT22;21755;43.608;1.236;2023-09-30T03:17:00;17.90;97.30
34768;DHT22;21755;43.608;1.236;2023-09-30T03:19:26;17.90;98.10
34768;DHT22;21755;43.608;1.236;2023-09-30T03:21:52;17.90;98.00
34768;DHT22;21755;43.608;1.236;2023-09-30T03:24:18;17.80;98.50
34768;DHT22;21755;43.608;1.236;2023-09-30T03:26:44;17.80;98.60
34768;DHT22;21755;43.608;1.236;2023-09-30T03:29:10;17.80;99.20
34768;DHT22;21755;43.608;1.236;2023-09-30T03:31:36;17.80;98.50
34768;DHT22;21755;43.608;1.236;2023-09-30T03:34:05;17.70;98.70
34768;DHT22;21755;43.608;1.236;2023-09-30T03:36:31;17.80;99.30
34768;DHT22;21755;43.608;1.236;2023-09-30T03:38:57;17.80;99.00
34768;DHT22;21755;43.608;1.236;2023-09-30T03:41:26;17.80;98.30
34768;DHT22;21755;43.608;1.236;2023-09-30T03:43:52;17.70;98.30
34768;DHT22;21755;43.608;1.236;2023-09-30T03:46:19;17.70;98.80
34768;DHT22;21755;43.608;1.236;2023-09-30T03:48:45;17.70;99.50
34768;DHT22;21755;43.608;1.236;2023-09-30T03:51:12;17.70;99.90
34768;DHT22;21755;43.608;1.236;2023-09-30T03:53:45;17.70;99.70
34768;DHT22;21755;43.608;1.236;2023-09-30T03:56:11;17.70;99.40
34768;DHT22;21755;43.608;1.236;2023-09-30T03:58:41;17.60;99.20
34768;DHT22;21755;43.608;1.236;2023-09-30T04:01:08;17.60;97.90
34768;DHT22;21755;43.608;1.236;2023-09-30T04:03:37;17.60;98.30
34768;DHT22;21755;43.608;1.236;2023-09-30T04:06:05;17.60;98.40
34768;DHT22;21755;43.608;1.236;2023-09-30T04:08:32;17.60;98.30
34768;DHT22;21755;43.608;1.236;2023-09-30T04:11:01;17.60;97.90
34768;DHT22;21755;43.608;1.236;2023-09-30T04:13:28;17.50;98.80
34768;DHT22;21755;43.608;1.236;2023-09-30T04:15:55;17.60;99.00
34768;DHT22;21755;43.608;1.236;2023-09-30T04:18:21;17.60;99.00
34768;DHT22;21755;43.608;1.236;2023-09-30T04:20:48;17.50;98.20
34768;DHT22;21755;43.608;1.236;2023-09-30T04:23:14;17.50;98.50
34768;DHT22;21755;43.608;1.236;2023-09-30T04:25:40;17.50;98.40
34768;DHT22;21755;43.608;1.236;2023-09-30T04:28:08;17.50;97.50
34768;DHT22;21755;43.608;1.236;2023-09-30T04:30:34;17.40;97.80
34768;DHT22;21755;43.608;1.236;2023-09-30T04:33:00;17.40;98.50
34768;DHT22;21755;43.608;1.236;2023-09-30T04:35:26;17.30;98.50
34768;DHT22;21755;43.608;1.236;2023-09-30T04:37:52;17.30;99.10
34768;DHT22;21755;43.608;1.236;2023-09-30T04:40:18;17.30;99.30
34768;DHT22;21755;43.608;1.236;2023-09-30T04:42:47;17.20;98.90
34768;DHT22;21755;43.608;1.236;2023-09-30T04:45:13;17.20;98.90
34768;DHT22;21755;43.608;1.236;2023-09-30T04:47:42;17.20;99.00
34768;DHT22;21755;43.608;1.236;2023-09-30T04:50:11;17.10;99.30
34768;DHT22;21755;43.608;1.236;2023-09-30T04:52:40;17.10;99.60
34768;DHT22;21755;43.608;1.236;2023-09-30T04:55:06;17.10;99.20
34768;DHT22;21755;43.608;1.236;2023-09-30T04:57:33;17.10;99.00
34768;DHT22;21755;43.608;1.236;2023-09-30T04:59:59;17.00;99.10
34768;DHT22;21755;43.608;1.236;2023-09-30T05:02:25;17.00;98.60
34768;DHT22;21755;43.608;1.236;2023-09-30T05:04:51;17.00;99.90
34768;DHT22;21755;43.608;1.236;2023-09-30T05:07:18;16.90;99.90
34768;DHT22;21755;43.608;1.236;2023-09-30T05:09:44;16.90;99.90
34768;DHT22;21755;43.608;1.236;2023-09-30T05:12:10;16.90;99.90
34768;DHT22;21755;43.608;1.236;2023-09-30T05:14:36;16.90;99.90
34768;DHT22;21755;43.608;1.236;2023-09-30T05:17:04;16.80;99.90
34768;DHT22;21755;43.608;1.236;2023-09-30T05:19:31;16.80;99.90
34768;DHT22;21755;43.608;1.236;2023-09-30T05:22:02;16.80;99.90
34768;DHT22;21755;43.608;1.236;2023-09-30T05:24:28;16.80;99.90
34768;DHT22;21755;43.608;1.236;2023-09-30T05:26:55;16.80;99.90
34768;DHT22;21755;43.608;1.236;2023-09-30T05:29:20;16.80;99.90
34768;DHT22;21755;43.608;1.236;2023-09-30T05:31:47;16.80;99.90
34768;DHT22;21755;43.608;1.236;2023-09-30T05:34:13;16.80;99.90
34768;DHT22;21755;43.608;1.236;2023-09-30T05:36:39;16.80;99.90
34768;DHT22;21755;43.608;1.236;2023-09-30T05:39:05;16.80;99.90
34768;DHT22;21755;43.608;1.236;2023-09-30T05:41:31;16.70;99.90
34768;DHT22;21755;43.608;1.236;2023-09-30T05:43:57;16.70;99.90
34768;DHT22;21755;43.608;1.236;2023-09-30T05:46:25;16.70;99.90
34768;DHT22;21755;43.608;1.236;2023-09-30T05:48:53;16.70;99.90
34768;DHT22;21755;43.608;1.236;2023-09-30T05:51:18;16.70;99.90
34768;DHT22;21755;43.608;1.236;2023-09-30T05:53:44;16.70;99.90
34768;DHT22;21755;43.608;1.236;2023-09-30T05:56:12;16.70;99.90
34768;DHT22;21755;43.608;1.236;2023-09-30T05:58:41;16.70;99.80
34768;DHT22;21755;43.608;1.236;2023-09-30T06:01:08;16.60;99.30
34768;DHT22;21755;43.608;1.236;2023-09-30T06:03:37;16.60;99.90
34768;DHT22;21755;43.608;1.236;2023-09-30T06:06:15;16.50;99.90
34768;DHT22;21755;43.608;1.236;2023-09-30T06:08:44;16.50;99.90
34768;DHT22;21755;43.608;1.236;2023-09-30T06:11:19;16.50;99.90
34768;DHT22;21755;43.608;1.236;2023-09-30T06:13:52;16.50;99.90
34768;DHT22;21755;43.608;1.236;2023-09-30T06:16:19;16.50;99.90
34768;DHT22;21755;43.608;1.236;2023-09-30T06:18:45;16.50;99.90
34768;DHT22;21755;43.608;1.236;2023-09-30T06:21:14;16.50;99.90
34768;DHT22;21755;43.608;1.236;2023-09-30T06:23:43;16.50;99.90
34768;DHT22;21755;43.608;1.236;2023-09-30T06:26:09;16.60;99.90
34768;DHT22;21755;43.608;1.236;2023-09-30T06:28:35;16.60;99.90
34768;DHT22;21755;43.608;1.236;2023-09-30T06:31:07;16.60;99.90
34768;DHT22;21755;43.608;1.236;2023-09-30T06:33:37;16.70;99.90
34768;DHT22;21755;43.608;1.236;2023-09-30T06:36:11;16.70;99.90
34768;DHT22;21755;43.608;1.236;2023-09-30T06:38:40;16.70;99.90
34768;DHT22;21755;43.608;1.236;2023-09-30T06:41:07;16.70;99.90
34768;DHT22;21755;43.608;1.236;2023-09-30T06:43:33;16.80;99.90
34768;DHT22;21755;43.608;1.236;2023-09-30T06:46:08;16.80;99.90
34768;DHT22;21755;43.608;1.236;2023-09-30T06:48:39;16.80;99.90
34768;DHT22;21755;43.608;1.236;2023-09-30T06:51:12;16.80;99.90
34768;DHT22;21755;43.608;1.236;2023-09-30T06:53:39;16.90;99.90
34768;DHT22;21755;43.608;1.236;2023-09-30T06:56:05;16.90;99.90
34768;DHT22;21755;43.608;1.236;2023-09-30T06:58:32;17.00;99.90
34768;DHT22;21755;43.608;1.236;2023-09-30T07:00:58;17.00;99.90
34768;DHT22;21755;43.608;1.236;2023-09-30T07:03:24;17.10;99.90
34768;DHT22;21755;43.608;1.236;2023-09-30T07:05:50;17.10;99.90
34768;DHT22;21755;43.608;1.236;2023-09-30T07:08:17;17.20;99.90
34768;DHT22;21755;43.608;1.236;2023-09-30T07:10:46;17.20;99.90
34768;DHT22;21755;43.608;1.236;2023-09-30T07:13:15;17.20;99.90
34768;DHT22;21755;43.608;1.236;2023-09-30T07:15:41;17.30;99.90
34768;DHT22;21755;43.608;1.236;2023-09-30T07:18:08;17.30;99.90
34768;DHT22;21755;43.608;1.236;2023-09-30T07:20:34;17.40;99.90
34768;DHT22;21755;43.608;1.236;2023-09-30T07:23:00;17.50;99.90
34768;DHT22;21755;43.608;1.236;2023-09-30T07:25:27;17.50;99.90
34768;DHT22;21755;43.608;1.236;2023-09-30T07:27:53;17.60;99.90
34768;DHT22;21755;43.608;1.236;2023-09-30T07:30:19;17.70;99.90
34768;DHT22;21755;43.608;1.236;2023-09-30T07:32:45;17.70;99.90
34768;DHT22;21755;43.608;1.236;2023-09-30T07:35:12;17.80;99.90
34768;DHT22;21755;43.608;1.236;2023-09-30T07:37:39;17.80;99.90
34768;DHT22;21755;43.608;1.236;2023-09-30T07:40:06;17.90;99.90
34768;DHT22;21755;43.608;1.236;2023-09-30T07:42:32;18.00;99.90
34768;DHT22;21755;43.608;1.236;2023-09-30T07:44:59;18.00;99.90
34768;DHT22;21755;43.608;1.236;2023-09-30T07:47:24;18.10;99.90
34768;DHT22;21755;43.608;1.236;2023-09-30T07:49:50;18.30;99.90
34768;DHT22;21755;43.608;1.236;2023-09-30T07:52:16;18.30;99.90
34768;DHT22;21755;43.608;1.236;2023-09-30T07:54:42;18.40;99.90
34768;DHT22;21755;43.608;1.236;2023-09-30T07:57:08;18.50;99.90
34768;DHT22;21755;43.608;1.236;2023-09-30T07:59:34;18.50;99.90
34768;DHT22;21755;43.608;1.236;2023-09-30T08:02:01;18.60;99.90
34768;DHT22;21755;43.608;1.236;2023-09-30T08:04:27;18.60;99.90
34768;DHT22;21755;43.608;1.236;2023-09-30T08:06:53;18.60;99.90
34768;DHT22;21755;43.608;1.236;2023-09-30T08:09:19;18.70;99.90
34768;DHT22;21755;43.608;1.236;2023-09-30T08:11:45;18.70;99.90
34768;DHT22;21755;43.608;1.236;2023-09-30T08:14:11;18.80;99.90
34768;DHT22;21755;43.608;1.236;2023-09-30T08:16:37;18.80;99.90
34768;DHT22;21755;43.608;1.236;2023-09-30T08:19:03;18.90;99.90
34768;DHT22;21755;43.608;1.236;2023-09-30T08:21:30;18.90;99.90
34768;DHT22;21755;43.608;1.236;2023-09-30T08:23:57;19.00;99.90
34768;DHT22;21755;43.608;1.236;2023-09-30T08:26:23;19.10;99.90
34768;DHT22;21755;43.608;1.236;2023-09-30T08:28:49;19.10;99.90
34768;DHT22;21755;43.608;1.236;2023-09-30T08:31:15;19.20;99.90
34768;DHT22;21755;43.608;1.236;2023-09-30T08:33:41;19.30;99.90
34768;DHT22;21755;43.608;1.236;2023-09-30T08:36:09;19.40;99.90
34768;DHT22;21755;43.608;1.236;2023-09-30T08:38:36;19.50;99.90
34768;DHT22;21755;43.608;1.236;2023-09-30T08:41:03;19.50;99.90
34768;DHT22;21755;43.608;1.236;2023-09-30T08:43:29;19.60;99.90
34768;DHT22;21755;43.608;1.236;2023-09-30T08:46:02;19.60;99.90
34768;DHT22;21755;43.608;1.236;2023-09-30T08:48:28;19.70;99.90
34768;DHT22;21755;43.608;1.236;2023-09-30T08:50:56;19.70;99.90
34768;DHT22;21755;43.608;1.236;2023-09-30T08:53:24;19.80;99.90
34768;DHT22;21755;43.608;1.236;2023-09-30T08:55:54;19.80;99.90
34768;DHT22;21755;43.608;1.236;2023-09-30T08:58:23;20.00;99.90
34768;DHT22;21755;43.608;1.236;2023-09-30T09:00:49;20.10;99.90
34768;DHT22;21755;43.608;1.236;2023-09-30T09:03:17;20.20;99.90
34768;DHT22;21755;43.608;1.236;2023-09-30T09:05:43;20.20;99.90
34768;DHT22;21755;43.608;1.236;2023-09-30T09:08:09;20.20;98.40
34768;DHT22;21755;43.608;1.236;2023-09-30T09:10:35;20.30;99.90
34768;DHT22;21755;43.608;1.236;2023-09-30T09:13:01;20.60;99.90
34768;DHT22;21755;43.608;1.236;2023-09-30T09:15:28;20.70;93.70
34768;DHT22;21755;43.608;1.236;2023-09-30T09:17:54;20.80;82.70
34768;DHT22;21755;43.608;1.236;2023-09-30T09:20:22;20.90;83.90
34768;DHT22;21755;43.608;1.236;2023-09-30T09:22:50;21.00;76.30
34768;DHT22;21755;43.608;1.236;2023-09-30T09:25:19;21.00;72.90
34768;DHT22;21755;43.608;1.236;2023-09-30T09:27:45;21.00;69.40
34768;DHT22;21755;43.608;1.236;2023-09-30T09:30:29;21.10;66.00
34768;DHT22;21755;43.608;1.236;2023-09-30T09:35:28;21.20;58.80
34768;DHT22;21755;43.608;1.236;2023-09-30T09:40:26;21.20;57.70
34768;DHT22;21755;43.608;1.236;2023-09-30T09:42:54;21.20;56.80
34768;DHT22;21755;43.608;1.236;2023-09-30T09:45:22;21.20;53.80
34768;DHT22;21755;43.608;1.236;2023-09-30T09:47:49;21.30;52.10
34768;DHT22;21755;43.608;1.236;2023-09-30T09:50:18;21.30;42.00
34768;DHT22;21755;43.608;1.236;2023-09-30T09:52:52;21.40;35.00
34768;DHT22;21755;43.608;1.236;2023-09-30T09:55:20;21.40;34.00
34768;DHT22;21755;43.608;1.236;2023-09-30T09:57:48;21.50;31.60
34768;DHT22;21755;43.608;1.236;2023-09-30T10:00:23;21.50;26.50
34768;DHT22;21755;43.608;1.236;2023-09-30T10:02:50;21.60;19.10
34768;DHT22;21755;43.608;1.236;2023-09-30T10:05:16;21.70;20.50
34768;DHT22;21755;43.608;1.236;2023-09-30T10:07:52;21.70;15.70
34768;DHT22;21755;43.608;1.236;2023-09-30T10:10:21;22.00;13.30
34768;DHT22;21755;43.608;1.236;2023-09-30T10:12:48;22.20;1.00
34768;DHT22;21755;43.608;1.236;2023-09-30T10:18:10;22.10;1.00
34768;DHT22;21755;43.608;1.236;2023-09-30T10:20:39;22.10;1.00
34768;DHT22;21755;43.608;1.236;2023-09-30T10:23:24;22.10;1.00
34768;DHT22;21755;43.608;1.236;2023-09-30T10:26:33;22.20;1.00
34768;DHT22;21755;43.608;1.236;2023-09-30T10:28:44;22.20;1.00
34768;DHT22;21755;43.608;1.236;2023-09-30T10:39:01;22.60;1.00
34768;DHT22;21755;43.608;1.236;2023-09-30T10:46:54;23.00;1.00
34768;DHT22;21755;43.608;1.236;2023-09-30T10:51:53;23.00;1.00
34768;DHT22;21755;43.608;1.236;2023-09-30T10:54:23;23.00;1.00
34768;DHT22;21755;43.608;1.236;2023-09-30T10:56:50;23.00;1.00
34768;DHT22;21755;43.608;1.236;2023-09-30T10:59:19;23.20;1.00
34768;DHT22;21755;43.608;1.236;2023-09-30T11:01:45;23.40;1.00
34768;DHT22;21755;43.608;1.236;2023-09-30T11:04:12;23.50;1.00
34768;DHT22;21755;43.608;1.236;2023-09-30T11:06:41;23.40;1.00
34768;DHT22;21755;43.608;1.236;2023-09-30T11:09:08;23.40;1.00
34768;DHT22;21755;43.608;1.236;2023-09-30T11:11:58;23.50;1.00
34768;DHT22;21755;43.608;1.236;2023-09-30T11:14:31;23.60;1.00
34768;DHT22;21755;43.608;1.236;2023-09-30T11:17:01;23.60;99.90
34768;DHT22;21755;43.608;1.236;2023-09-30T11:19:35;23.50;99.90
34768;DHT22;21755;43.608;1.236;2023-09-30T11:22:02;23.50;99.90
34768;DHT22;21755;43.608;1.236;2023-09-30T11:24:28;23.60;1.00
34768;DHT22;21755;43.608;1.236;2023-09-30T11:26:55;23.70;99.90
34768;DHT22;21755;43.608;1.236;2023-09-30T11:29:21;23.80;99.90
34768;DHT22;21755;43.608;1.236;2023-09-30T11:31:49;23.90;99.90
34768;DHT22;21755;43.608;1.236;2023-09-30T11:34:17;23.80;99.90
34768;DHT22;21755;43.608;1.236;2023-09-30T11:36:50;23.80;99.90
34768;DHT22;21755;43.608;1.236;2023-09-30T11:39:27;23.90;99.90
34768;DHT22;21755;43.608;1.236;2023-09-30T11:41:54;23.90;99.90
34768;DHT22;21755;43.608;1.236;2023-09-30T11:44:26;23.90;99.90
34768;DHT22;21755;43.608;1.236;2023-09-30T11:49:29;24.20;99.90
34768;DHT22;21755;43.608;1.236;2023-09-30T11:51:57;24.20;99.90
34768;DHT22;21755;43.608;1.236;2023-09-30T11:54:31;24.10;99.90
34768;DHT22;21755;43.608;1.236;2023-09-30T11:56:58;24.20;99.90
34768;DHT22;21755;43.608;1.236;2023-09-30T11:59:24;24.40;99.90
34768;DHT22;21755;43.608;1.236;2023-09-30T12:01:50;24.50;99.90
34768;DHT22;21755;43.608;1.236;2023-09-30T12:04:17;24.50;99.90
34768;DHT22;21755;43.608;1.236;2023-09-30T12:06:45;24.60;99.90
34768;DHT22;21755;43.608;1.236;2023-09-30T12:09:14;24.70;54.10
34768;DHT22;21755;43.608;1.236;2023-09-30T12:11:43;24.70;91.70
34768;DHT22;21755;43.608;1.236;2023-09-30T12:14:11;24.70;1.00
34768;DHT22;21755;43.608;1.236;2023-09-30T12:16:37;24.60;1.00
34768;DHT22;21755;43.608;1.236;2023-09-30T12:19:03;24.50;3.90
34768;DHT22;21755;43.608;1.236;2023-09-30T12:21:36;24.50;11.50
34768;DHT22;21755;43.608;1.236;2023-09-30T12:24:03;24.40;29.00
34768;DHT22;21755;43.608;1.236;2023-09-30T12:26:30;24.40;87.00
34768;DHT22;21755;43.608;1.236;2023-09-30T12:28:56;24.40;96.80
34768;DHT22;21755;43.608;1.236;2023-09-30T12:31:23;24.50;27.30
34768;DHT22;21755;43.608;1.236;2023-09-30T12:33:49;24.50;1.00
34768;DHT22;21755;43.608;1.236;2023-09-30T12:36:16;24.50;79.60
34768;DHT22;21755;43.608;1.236;2023-09-30T12:38:42;24.50;67.00
34768;DHT22;21755;43.608;1.236;2023-09-30T12:41:08;24.60;41.60
34768;DHT22;21755;43.608;1.236;2023-09-30T12:43:34;24.80;1.00
34768;DHT22;21755;43.608;1.236;2023-09-30T12:46:01;24.70;1.00
34768;DHT22;21755;43.608;1.236;2023-09-30T12:48:27;24.70;1.00
34768;DHT22;21755;43.608;1.236;2023-09-30T12:50:53;24.80;1.00
34768;DHT22;21755;43.608;1.236;2023-09-30T12:53:19;24.90;1.00
34768;DHT22;21755;43.608;1.236;2023-09-30T12:55:44;25.00;99.90
34768;DHT22;21755;43.608;1.236;2023-09-30T12:58:11;25.00;99.90
34768;DHT22;21755;43.608;1.236;2023-09-30T13:00:37;25.00;99.90
34768;DHT22;21755;43.608;1.236;2023-09-30T13:03:03;24.90;1.00
34768;DHT22;21755;43.608;1.236;2023-09-30T13:05:29;24.80;1.00
34768;DHT22;21755;43.608;1.236;2023-09-30T13:07:56;24.90;1.00
34768;DHT22;21755;43.608;1.236;2023-09-30T13:10:22;25.10;99.90
34768;DHT22;21755;43.608;1.236;2023-09-30T13:12:48;25.30;99.90
34768;DHT22;21755;43.608;1.236;2023-09-30T13:15:16;25.30;1.00
34768;DHT22;21755;43.608;1.236;2023-09-30T13:17:45;25.40;1.00
34768;DHT22;21755;43.608;1.236;2023-09-30T13:20:11;25.50;99.90
34768;DHT22;21755;43.608;1.236;2023-09-30T13:22:40;25.50;58.80
34768;DHT22;21755;43.608;1.236;2023-09-30T13:25:06;25.60;22.10
34768;DHT22;21755;43.608;1.236;2023-09-30T13:27:38;25.60;1.00
34768;DHT22;21755;43.608;1.236;2023-09-30T13:30:06;25.60;1.00
34768;DHT22;21755;43.608;1.236;2023-09-30T13:32:34;25.60;99.90
34768;DHT22;21755;43.608;1.236;2023-09-30T13:35:06;25.70;1.00
34768;DHT22;21755;43.608;1.236;2023-09-30T13:37:32;25.80;99.90
34768;DHT22;21755;43.608;1.236;2023-09-30T13:40:02;25.80;99.90
34768;DHT22;21755;43.608;1.236;2023-09-30T13:42:30;25.80;70.80
34768;DHT22;21755;43.608;1.236;2023-09-30T13:44:56;25.80;99.90
34768;DHT22;21755;43.608;1.236;2023-09-30T13:47:26;25.80;96.40
34768;DHT22;21755;43.608;1.236;2023-09-30T13:49:52;25.90;99.90
34768;DHT22;21755;43.608;1.236;2023-09-30T13:52:18;26.10;99.90
34768;DHT22;21755;43.608;1.236;2023-09-30T13:54:44;26.10;52.40
34768;DHT22;21755;43.608;1.236;2023-09-30T13:57:10;26.10;99.90
34768;DHT22;21755;43.608;1.236;2023-09-30T13:59:36;26.20;99.90
34768;DHT22;21755;43.608;1.236;2023-09-30T14:02:05;26.30;99.90
34768;DHT22;21755;43.608;1.236;2023-09-30T14:04:31;26.30;1.00
34768;DHT22;21755;43.608;1.236;2023-09-30T14:07:03;26.30;1.00
34768;DHT22;21755;43.608;1.236;2023-09-30T14:09:31;26.40;1.00
34768;DHT22;21755;43.608;1.236;2023-09-30T14:11:57;26.30;99.90
34768;DHT22;21755;43.608;1.236;2023-09-30T14:14:24;26.20;99.90
34768;DHT22;21755;43.608;1.236;2023-09-30T14:16:51;26.10;95.00
34768;DHT22;21755;43.608;1.236;2023-09-30T14:19:17;26.10;82.10
34768;DHT22;21755;43.608;1.236;2023-09-30T14:21:43;26.20;1.00
34768;DHT22;21755;43.608;1.236;2023-09-30T14:24:11;26.30;1.00
34768;DHT22;21755;43.608;1.236;2023-09-30T14:26:37;26.40;99.90
34768;DHT22;21755;43.608;1.236;2023-09-30T14:29:03;26.30;99.90
34768;DHT22;21755;43.608;1.236;2023-09-30T14:31:29;26.40;99.90
34768;DHT22;21755;43.608;1.236;2023-09-30T14:33:55;26.40;99.90
34768;DHT22;21755;43.608;1.236;2023-09-30T14:36:21;26.40;99.90
34768;DHT22;21755;43.608;1.236;2023-09-30T14:38:48;26.40;99.90
34768;DHT22;21755;43.608;1.236;2023-09-30T14:41:15;26.30;1.00
34768;DHT22;21755;43.608;1.236;2023-09-30T14:43:41;26.30;99.90
34768;DHT22;21755;43.608;1.236;2023-09-30T14:46:07;26.30;99.90
34768;DHT22;21755;43.608;1.236;2023-09-30T14:48:36;26.30;99.90
34768;DHT22;21755;43.608;1.236;2023-09-30T14:51:01;26.40;99.90
34768;DHT22;21755;43.608;1.236;2023-09-30T14:53:30;26.40;99.90
34768;DHT22;21755;43.608;1.236;2023-09-30T14:55:56;26.50;99.90
34768;DHT22;21755;43.608;1.236;2023-09-30T14:58:22;26.50;24.70
34768;DHT22;21755;43.608;1.236;2023-09-30T15:00:47;26.60;99.90
34768;DHT22;21755;43.608;1.236;2023-09-30T15:03:13;26.70;99.90
34768;DHT22;21755;43.608;1.236;2023-09-30T15:05:39;26.70;99.90
34768;DHT22;21755;43.608;1.236;2023-09-30T15:08:05;26.60;99.90
34768;DHT22;21755;43.608;1.236;2023-09-30T15:10:34;26.80;99.90
34768;DHT22;21755;43.608;1.236;2023-09-30T15:13:01;26.80;99.90
34768;DHT22;21755;43.608;1.236;2023-09-30T15:15:27;26.80;1.00
34768;DHT22;21755;43.608;1.236;2023-09-30T15:17:54;26.80;64.40
34768;DHT22;21755;43.608;1.236;2023-09-30T15:20:20;26.90;1.00
34768;DHT22;21755;43.608;1.236;2023-09-30T15:22:46;27.00;1.00
34768;DHT22;21755;43.608;1.236;2023-09-30T15:25:12;26.90;1.00
34768;DHT22;21755;43.608;1.236;2023-09-30T15:27:38;26.80;7.00
34768;DHT22;21755;43.608;1.236;2023-09-30T15:30:04;26.80;99.90
34768;DHT22;21755;43.608;1.236;2023-09-30T15:32:33;26.80;99.90
34768;DHT22;21755;43.608;1.236;2023-09-30T15:34:59;26.90;43.20
34768;DHT22;21755;43.608;1.236;2023-09-30T15:37:26;26.90;48.30
34768;DHT22;21755;43.608;1.236;2023-09-30T15:39:52;26.90;28.50
34768;DHT22;21755;43.608;1.236;2023-09-30T15:42:18;27.00;12.40
34768;DHT22;21755;43.608;1.236;2023-09-30T15:44:43;27.00;1.00
34768;DHT22;21755;43.608;1.236;2023-09-30T15:47:09;26.90;1.00
34768;DHT22;21755;43.608;1.236;2023-09-30T15:49:35;26.90;1.00
34768;DHT22;21755;43.608;1.236;2023-09-30T15:52:02;26.90;1.00
34768;DHT22;21755;43.608;1.236;2023-09-30T15:54:28;27.00;1.00
34768;DHT22;21755;43.608;1.236;2023-09-30T15:56:54;27.00;1.00
34768;DHT22;21755;43.608;1.236;2023-09-30T15:59:19;26.90;1.00